Time;durP1;ratioP1;P1;durP2;ratioP2;P2;SDS_P1;SDS_P2;PMS_P1;PMS_P2;Temp;Humidity;BMP_temperature;BMP_pressure;BME280_temperature;BME280_humidity;BME280_pressure;Samples;Min_cycle;Max_cycle;Signal;HPM_P1;HPM_P2
2022/08/27 00:00:29;;;;;;;0.40;0.40;;;19.00;99.90;;;;;;5111074;28;20192;-68
2022/08/27 00:03:18;;;;;;;0.40;0.40;;;19.00;99.90;;;;;;5112407;28;20610;-67
2022/08/27 00:06:07;;;;;;;0.40;0.40;;;19.10;99.90;;;;;;5111991;28;20710;-68
2022/08/27 00:08:57;;;;;;;0.40;0.40;;;18.90;99.90;;;;;;5110925;28;20340;-66
2022/08/27 00:11:45;;;;;;;0.40;0.40;;;19.10;99.90;;;;;;5112132;28;20203;-70
2022/08/27 00:14:34;;;;;;;0.40;0.40;;;19.10;99.90;;;;;;5112087;28;20226;-66
2022/08/27 00:17:22;;;;;;;0.90;0.90;;;18.90;99.90;;;;;;5111357;28;20237;-69
2022/08/27 00:20:11;;;;;;;0.40;0.40;;;18.90;99.90;;;;;;5111049;28;20207;-70
2022/08/27 00:23:01;;;;;;;0.40;0.40;;;18.90;99.90;;;;;;5111475;28;20199;-68
2022/08/27 00:25:49;;;;;;;0.40;0.40;;;19.00;99.90;;;;;;5111057;28;20308;-67
2022/08/27 00:28:38;;;;;;;0.40;0.40;;;19.00;99.90;;;;;;5110497;28;20231;-66
2022/08/27 00:31:26;;;;;;;0.50;0.50;;;19.00;99.90;;;;;;5111648;28;20227;-68
2022/08/27 00:34:15;;;;;;;0.40;0.40;;;18.90;99.90;;;;;;5111725;28;20203;-66
2022/08/27 00:37:05;;;;;;;0.40;0.40;;;18.90;99.90;;;;;;5111568;28;20215;-71
2022/08/27 00:39:54;;;;;;;0.40;0.40;;;18.90;99.90;;;;;;5113891;28;20727;-67
2022/08/27 00:42:44;;;;;;;0.40;0.40;;;19.00;99.90;;;;;;5114994;28;20288;-69
2022/08/27 00:45:38;;;;;;;0.40;0.40;;;19.00;99.90;;;;;;5114827;28;20713;-69
2022/08/27 00:48:30;;;;;;;0.50;0.50;;;19.00;99.90;;;;;;5115130;28;20202;-67
2022/08/27 00:51:20;;;;;;;0.70;0.70;;;19.00;99.90;;;;;;5113942;28;20238;-72
2022/08/27 00:54:09;;;;;;;0.75;0.75;;;19.10;99.90;;;;;;5113913;28;20230;-68
2022/08/27 00:57:05;;;;;;;0.73;0.73;;;19.00;99.90;;;;;;5114405;28;20294;-68
2022/08/27 00:59:53;;;;;;;0.40;0.40;;;19.00;99.90;;;;;;5112151;28;20203;-66
2022/08/27 01:02:45;;;;;;;0.40;0.40;;;19.00;99.90;;;;;;5114239;28;20195;-68
2022/08/27 01:05:36;;;;;;;0.40;0.40;;;19.00;99.90;;;;;;5113759;28;20211;-69
2022/08/27 01:08:28;;;;;;;0.40;0.40;;;19.00;99.90;;;;;;5114303;28;20598;-66
2022/08/27 01:11:17;;;;;;;0.40;0.40;;;19.00;99.90;;;;;;5112425;28;20599;-69
2022/08/27 01:14:07;;;;;;;0.52;0.52;;;18.90;99.90;;;;;;5114113;28;20199;-69
2022/08/27 01:16:57;;;;;;;0.40;0.40;;;18.90;99.90;;;;;;5113410;28;20231;-71
2022/08/27 01:19:53;;;;;;;0.40;0.40;;;19.00;99.90;;;;;;5113823;28;20195;-70
2022/08/27 01:22:49;;;;;;;0.40;0.40;;;19.00;99.90;;;;;;5114291;28;20244;-67
2022/08/27 01:25:40;;;;;;;0.55;0.55;;;19.00;99.90;;;;;;5114135;28;20304;-69
2022/08/27 01:28:30;;;;;;;0.40;0.40;;;19.10;99.90;;;;;;5113797;28;20575;-69
2022/08/27 01:31:25;;;;;;;0.40;0.40;;;18.90;99.90;;;;;;5113089;28;20286;-70
2022/08/27 01:34:13;;;;;;;0.40;0.40;;;19.00;99.90;;;;;;5113305;28;20279;-70
2022/08/27 01:37:03;;;;;;;0.60;0.60;;;19.00;99.90;;;;;;5119154;27;20287;-68
2022/08/27 01:39:52;;;;;;;0.40;0.40;;;19.00;99.90;;;;;;5109330;28;20288;-68
2022/08/27 01:42:44;;;;;;;0.40;0.40;;;19.00;99.90;;;;;;5112957;28;20380;-70
2022/08/27 01:45:35;;;;;;;0.40;0.40;;;19.00;99.90;;;;;;5113564;28;20223;-67
2022/08/27 01:48:23;;;;;;;0.65;0.65;;;19.10;99.90;;;;;;5114891;28;20204;-68
2022/08/27 01:51:11;;;;;;;0.40;0.40;;;19.20;99.90;;;;;;5113719;28;20235;-67
2022/08/27 01:54:00;;;;;;;5.20;4.97;;;19.10;99.90;;;;;;5113573;28;20204;-68
2022/08/27 01:56:48;;;;;;;0.40;0.40;;;19.20;99.90;;;;;;5114082;28;20219;-69
2022/08/27 01:59:37;;;;;;;0.40;0.40;;;19.20;99.90;;;;;;5112247;28;20206;-67
2022/08/27 02:02:27;;;;;;;0.40;0.40;;;19.20;99.90;;;;;;5112797;28;20284;-66
2022/08/27 02:05:16;;;;;;;0.40;0.40;;;19.10;99.90;;;;;;5113465;28;20230;-67
2022/08/27 02:08:04;;;;;;;0.40;0.40;;;19.20;99.90;;;;;;5113083;28;20628;-68
2022/08/27 02:10:52;;;;;;;0.50;0.50;;;19.20;99.90;;;;;;5113049;28;20613;-68
2022/08/27 02:13:40;;;;;;;0.40;0.40;;;19.20;99.90;;;;;;5112685;28;20231;-69
2022/08/27 02:16:31;;;;;;;0.63;0.63;;;19.20;99.90;;;;;;5113810;28;20284;-68
2022/08/27 02:19:20;;;;;;;1.00;1.00;;;19.20;99.90;;;;;;5112734;28;20240;-66
2022/08/27 02:22:09;;;;;;;0.60;0.60;;;19.20;99.90;;;;;;5113637;28;20244;-68
2022/08/27 02:24:57;;;;;;;0.40;0.40;;;19.20;99.90;;;;;;5112812;28;20679;-68
2022/08/27 02:27:46;;;;;;;0.70;0.70;;;19.20;99.90;;;;;;5111750;28;20301;-68
2022/08/27 02:30:35;;;;;;;0.50;0.50;;;19.20;99.90;;;;;;5112735;28;20231;-71
2022/08/27 02:33:25;;;;;;;0.50;0.50;;;19.20;99.90;;;;;;5111485;28;20199;-69
2022/08/27 02:36:13;;;;;;;0.40;0.40;;;19.20;99.90;;;;;;5112834;28;20222;-69
2022/08/27 02:39:01;;;;;;;0.60;0.60;;;19.20;99.90;;;;;;5113238;28;20794;-69
2022/08/27 02:41:49;;;;;;;0.40;0.40;;;19.10;99.90;;;;;;5113191;28;20700;-67
2022/08/27 02:44:38;;;;;;;0.80;0.80;;;19.20;99.90;;;;;;5111909;28;20192;-66
2022/08/27 02:47:26;;;;;;;0.40;0.40;;;19.20;99.90;;;;;;5112927;28;20215;-68
2022/08/27 02:50:16;;;;;;;0.40;0.40;;;19.20;99.90;;;;;;5112648;28;20199;-69
2022/08/27 02:53:05;;;;;;;0.40;0.40;;;19.20;99.90;;;;;;5113081;28;20296;-66
2022/08/27 02:55:54;;;;;;;0.40;0.40;;;19.20;99.90;;;;;;5112367;28;20219;-69
2022/08/27 02:58:42;;;;;;;6.85;2.30;;;19.20;99.90;;;;;;5113063;28;20313;-68
2022/08/27 03:01:30;;;;;;;1.77;1.67;;;19.20;99.90;;;;;;5112743;28;20199;-66
2022/08/27 03:04:19;;;;;;;3.40;2.92;;;19.20;99.90;;;;;;5112212;28;20203;-69
2022/08/27 03:07:09;;;;;;;0.90;0.90;;;19.10;99.90;;;;;;5111283;28;20594;-68
2022/08/27 03:10:07;;;;;;;0.57;0.57;;;19.10;99.90;;;;;;5112170;28;20200;-66
2022/08/27 03:12:56;;;;;;;2.97;1.73;;;19.20;99.90;;;;;;5112720;28;20207;-69
2022/08/27 03:15:44;;;;;;;0.57;0.57;;;19.10;99.90;;;;;;5112525;28;20267;-70
2022/08/27 03:18:33;;;;;;;3.72;2.78;;;19.10;99.90;;;;;;5111563;28;20202;-69
2022/08/27 03:21:24;;;;;;;0.85;0.82;;;19.10;99.90;;;;;;5112092;28;20203;-70
2022/08/27 03:24:14;;;;;;;0.40;0.40;;;19.10;99.90;;;;;;5112591;28;20226;-69
2022/08/27 03:27:03;;;;;;;0.50;0.50;;;19.20;99.90;;;;;;5112707;28;20215;-69
2022/08/27 03:29:51;;;;;;;1.23;1.23;;;19.20;99.90;;;;;;5111583;28;20288;-70
2022/08/27 03:32:39;;;;;;;0.40;0.40;;;19.20;99.90;;;;;;5112670;28;20593;-68
2022/08/27 03:35:27;;;;;;;0.80;0.80;;;19.20;99.90;;;;;;5111666;28;20308;-71
2022/08/27 03:38:16;;;;;;;0.40;0.40;;;19.20;99.90;;;;;;5110700;28;20238;-68
2022/08/27 03:41:06;;;;;;;0.40;0.40;;;19.20;99.90;;;;;;5111631;28;20869;-68
2022/08/27 03:43:55;;;;;;;2.08;1.98;;;19.20;99.90;;;;;;5112360;28;20244;-71
2022/08/27 03:46:43;;;;;;;0.40;0.40;;;19.20;99.90;;;;;;5112125;28;20223;-71
2022/08/27 03:49:31;;;;;;;0.40;0.40;;;19.20;99.90;;;;;;5111617;28;20199;-68
2022/08/27 03:52:19;;;;;;;0.40;0.40;;;19.20;99.90;;;;;;5112481;28;20595;-69
2022/08/27 03:55:09;;;;;;;0.40;0.40;;;19.20;99.90;;;;;;5111624;28;20828;-67
2022/08/27 03:58:00;;;;;;;0.40;0.40;;;19.20;99.90;;;;;;5110543;28;20609;-68
2022/08/27 04:00:48;;;;;;;0.40;0.40;;;19.10;99.90;;;;;;5111099;28;20575;-67
2022/08/27 04:03:36;;;;;;;0.40;0.40;;;19.20;99.90;;;;;;5112458;28;20283;-69
2022/08/27 04:06:24;;;;;;;0.40;0.40;;;19.10;99.90;;;;;;5112246;28;20247;-69
2022/08/27 04:09:12;;;;;;;0.47;0.47;;;19.10;99.90;;;;;;5111247;28;20416;-69
2022/08/27 04:12:00;;;;;;;2.03;1.92;;;19.10;99.90;;;;;;5112566;28;20210;-71
2022/08/27 04:14:50;;;;;;;1.60;1.52;;;19.00;99.90;;;;;;5115090;28;20206;-69
2022/08/27 04:17:39;;;;;;;0.90;0.88;;;19.00;99.90;;;;;;5116013;28;20285;-70
2022/08/27 04:20:27;;;;;;;0.60;0.60;;;18.90;99.90;;;;;;5115351;28;20196;-71
2022/08/27 04:23:22;;;;;;;0.70;0.70;;;18.90;99.90;;;;;;5115648;28;20199;-68
2022/08/27 04:26:11;;;;;;;0.40;0.40;;;18.90;99.90;;;;;;5115893;28;20247;-69
2022/08/27 04:29:00;;;;;;;1.95;1.85;;;18.90;99.90;;;;;;5115184;28;20219;-68
2022/08/27 04:31:50;;;;;;;0.77;0.77;;;18.90;99.90;;;;;;5115776;28;20202;-69
2022/08/27 04:34:38;;;;;;;0.40;0.40;;;18.90;99.90;;;;;;5114970;28;20276;-68
2022/08/27 04:37:29;;;;;;;0.40;0.40;;;18.90;99.90;;;;;;5115869;28;20195;-68
2022/08/27 04:40:17;;;;;;;0.50;0.50;;;19.00;99.90;;;;;;5114732;28;20229;-70
2022/08/27 04:43:05;;;;;;;0.40;0.40;;;19.00;99.90;;;;;;5114890;28;20616;-71
2022/08/27 04:45:53;;;;;;;0.40;0.40;;;19.10;99.90;;;;;;5115363;28;20254;-68
2022/08/27 04:48:43;;;;;;;0.40;0.40;;;19.10;99.90;;;;;;5114674;28;20215;-68
2022/08/27 04:51:31;;;;;;;0.40;0.40;;;19.10;99.90;;;;;;5115366;28;20203;-68
2022/08/27 04:54:20;;;;;;;0.40;0.40;;;19.10;99.90;;;;;;5114572;28;20279;-67
2022/08/27 04:57:19;;;;;;;1.67;0.98;;;19.10;99.90;;;;;;5115384;28;20195;-70
2022/08/27 05:00:09;;;;;;;0.40;0.40;;;19.20;99.90;;;;;;5114232;28;20199;-69
2022/08/27 05:02:57;;;;;;;0.40;0.40;;;19.20;99.90;;;;;;5114014;28;20206;-68
2022/08/27 05:05:47;;;;;;;0.47;0.47;;;19.20;99.90;;;;;;5114407;28;20216;-67
2022/08/27 05:08:35;;;;;;;0.50;0.50;;;19.30;99.90;;;;;;5115084;28;20230;-70
2022/08/27 05:11:25;;;;;;;1.08;0.55;;;19.30;99.90;;;;;;5113770;28;20582;-69
2022/08/27 05:14:14;;;;;;;0.40;0.40;;;19.30;99.90;;;;;;5113623;28;20231;-68
2022/08/27 05:17:02;;;;;;;0.40;0.40;;;19.40;99.90;;;;;;5114074;28;20324;-69
2022/08/27 05:19:50;;;;;;;0.40;0.40;;;19.40;99.90;;;;;;5114181;28;20195;-68
2022/08/27 05:22:40;;;;;;;0.63;0.63;;;19.40;99.90;;;;;;5114441;28;20392;-67
2022/08/27 05:25:28;;;;;;;1.77;1.67;;;19.40;99.90;;;;;;5112841;28;20219;-66
2022/08/27 05:28:20;;;;;;;0.40;0.40;;;19.50;99.90;;;;;;5113542;28;20729;-67
2022/08/27 05:31:15;;;;;;;0.40;0.40;;;19.60;99.90;;;;;;5113525;28;20210;-68
2022/08/27 05:34:04;;;;;;;0.40;0.40;;;19.60;99.90;;;;;;5114248;28;20199;-66
2022/08/27 05:37:05;;;;;;;0.40;0.40;;;19.70;99.90;;;;;;5114883;28;20297;-66
2022/08/27 05:39:55;;;;;;;0.40;0.40;;;19.80;99.90;;;;;;5114951;28;20195;-66
2022/08/27 05:42:43;;;;;;;0.40;0.40;;;19.90;99.90;;;;;;5115030;28;20206;-65
2022/08/27 05:45:41;;;;;;;0.40;0.40;;;20.00;99.90;;;;;;5115356;28;20269;-66
2022/08/27 05:48:29;;;;;;;0.40;0.40;;;20.00;99.90;;;;;;5114823;28;20219;-66
2022/08/27 05:51:19;;;;;;;0.75;0.55;;;20.10;99.90;;;;;;5114239;28;20199;-65
2022/08/27 05:54:18;;;;;;;0.40;0.40;;;20.10;99.90;;;;;;5113775;28;20641;-66
2022/08/27 05:57:07;;;;;;;0.40;0.40;;;20.10;99.90;;;;;;5115022;28;20223;-66
2022/08/27 06:03:02;;;;;;;0.70;0.70;;;20.20;99.90;;;;;;5093467;28;20192;-67
2022/08/27 06:06:01;;;;;;;0.40;0.40;;;20.30;99.90;;;;;;5094382;28;20265;-67
2022/08/27 06:08:50;;;;;;;0.40;0.40;;;20.30;99.90;;;;;;5093906;28;20222;-66
2022/08/27 06:11:39;;;;;;;0.40;0.40;;;20.40;99.90;;;;;;5094268;28;20196;-66
2022/08/27 06:14:29;;;;;;;0.60;0.60;;;20.50;99.90;;;;;;5093520;28;20261;-65
2022/08/27 06:17:17;;;;;;;0.50;0.50;;;20.40;99.90;;;;;;5073406;28;20200;-67
2022/08/27 06:20:06;;;;;;;3.88;3.58;;;20.40;99.90;;;;;;5073161;28;20193;-67
2022/08/27 06:22:54;;;;;;;0.68;0.68;;;20.30;99.90;;;;;;5073008;28;20200;-67
2022/08/27 06:25:42;;;;;;;0.60;0.60;;;20.30;99.90;;;;;;5073100;28;20270;-65
2022/08/27 06:28:30;;;;;;;0.40;0.40;;;20.40;99.90;;;;;;5072845;28;20209;-66
2022/08/27 06:31:22;;;;;;;0.70;0.70;;;20.40;99.90;;;;;;5072566;28;20206;-65
2022/08/27 06:34:11;;;;;;;0.50;0.50;;;20.40;99.90;;;;;;5073127;28;20259;-67
2022/08/27 06:36:59;;;;;;;3.35;3.08;;;20.50;99.90;;;;;;5072040;28;20217;-67
2022/08/27 06:39:47;;;;;;;0.60;0.60;;;20.50;99.90;;;;;;5072633;28;20269;-66
2022/08/27 06:42:36;;;;;;;1.02;0.93;;;20.60;99.90;;;;;;5072641;28;20203;-67
2022/08/27 06:45:27;;;;;;;0.70;0.70;;;20.60;99.90;;;;;;5071780;28;20213;-65
2022/08/27 06:48:16;;;;;;;0.50;0.50;;;20.60;99.90;;;;;;5072692;28;20250;-66
2022/08/27 06:51:09;;;;;;;0.43;0.43;;;20.70;99.90;;;;;;5072479;28;20673;-66
2022/08/27 06:53:59;;;;;;;0.65;0.65;;;20.80;99.90;;;;;;5072687;28;20246;-65
2022/08/27 06:56:48;;;;;;;0.65;0.65;;;20.80;99.90;;;;;;5072416;28;20220;-66
2022/08/27 06:59:36;;;;;;;0.40;0.40;;;20.80;99.90;;;;;;5072537;28;20196;-66
2022/08/27 07:02:27;;;;;;;2.78;1.27;;;20.80;99.90;;;;;;5072422;28;20580;-66
2022/08/27 07:05:17;;;;;;;0.40;0.40;;;20.80;99.90;;;;;;5071979;28;20216;-66
2022/08/27 07:08:07;;;;;;;2.35;2.25;;;20.80;99.90;;;;;;5072497;28;20574;-66
2022/08/27 07:10:56;;;;;;;0.68;0.68;;;20.80;99.90;;;;;;5071630;28;20280;-66
2022/08/27 07:13:47;;;;;;;0.80;0.77;;;20.90;99.90;;;;;;5072655;28;20279;-66
2022/08/27 07:16:36;;;;;;;0.40;0.40;;;20.90;99.90;;;;;;5087558;28;20220;-65
2022/08/27 07:19:29;;;;;;;0.40;0.40;;;20.90;99.90;;;;;;5091906;28;20657;-66
2022/08/27 07:22:19;;;;;;;0.40;0.40;;;21.10;99.90;;;;;;5092583;28;20736;-66
2022/08/27 07:25:09;;;;;;;0.50;0.50;;;21.20;99.90;;;;;;5092167;28;20226;-65
2022/08/27 07:27:58;;;;;;;0.60;0.60;;;21.20;99.90;;;;;;5092554;28;20196;-66
2022/08/27 07:30:46;;;;;;;0.70;0.70;;;21.20;99.90;;;;;;5093722;28;20224;-66
2022/08/27 07:33:34;;;;;;;1.75;1.65;;;21.30;99.90;;;;;;5093803;28;20206;-66
2022/08/27 07:36:23;;;;;;;0.40;0.40;;;21.50;99.90;;;;;;5093208;28;20302;-70
2022/08/27 07:39:15;;;;;;;0.40;0.40;;;21.60;99.90;;;;;;5092645;28;20196;-66
2022/08/27 07:45:10;;;;;;;1.95;1.25;;;21.80;99.90;;;;;;5092603;28;20215;-66
2022/08/27 07:47:58;;;;;;;0.50;0.50;;;21.60;99.90;;;;;;5094967;28;20200;-66
2022/08/27 07:50:46;;;;;;;0.60;0.50;;;21.50;99.90;;;;;;5095714;28;20216;-66
2022/08/27 07:53:34;;;;;;;0.40;0.40;;;21.30;99.90;;;;;;5096206;28;20203;-66
2022/08/27 07:56:24;;;;;;;0.40;0.40;;;21.30;99.90;;;;;;5097241;28;20773;-65
2022/08/27 07:59:12;;;;;;;0.50;0.50;;;21.40;99.90;;;;;;5096418;28;20198;-65
2022/08/27 08:02:01;;;;;;;0.40;0.40;;;21.30;99.90;;;;;;5096007;28;20192;-66
2022/08/27 08:04:50;;;;;;;0.40;0.40;;;21.30;99.90;;;;;;5096940;28;20278;-66
2022/08/27 08:07:38;;;;;;;1.25;1.15;;;21.20;99.90;;;;;;5097089;28;20195;-66
2022/08/27 08:10:27;;;;;;;0.40;0.40;;;21.30;99.90;;;;;;5096238;28;20223;-64
2022/08/27 08:13:21;;;;;;;0.40;0.40;;;21.40;99.90;;;;;;5096716;28;20252;-65
2022/08/27 08:16:09;;;;;;;1.60;1.50;;;21.40;99.90;;;;;;5096114;28;20224;-65
2022/08/27 08:18:59;;;;;;;0.40;0.40;;;21.40;99.90;;;;;;5095199;28;20690;-66
2022/08/27 08:21:47;;;;;;;1.30;0.80;;;21.30;99.90;;;;;;5096239;28;20298;-65
2022/08/27 08:24:36;;;;;;;0.40;0.40;;;21.40;99.90;;;;;;5096722;28;20196;-66
2022/08/27 08:27:24;;;;;;;0.50;0.50;;;21.50;99.90;;;;;;5096595;28;20200;-66
2022/08/27 08:30:15;;;;;;;1.25;1.15;;;21.50;99.90;;;;;;5095003;28;20301;-65
2022/08/27 08:33:03;;;;;;;0.40;0.40;;;21.50;99.90;;;;;;5095153;28;20574;-66
2022/08/27 08:35:51;;;;;;;0.40;0.40;;;21.50;99.90;;;;;;5097059;28;20220;-66
2022/08/27 08:38:40;;;;;;;0.40;0.40;;;21.50;99.90;;;;;;5096419;28;20204;-66
2022/08/27 08:41:38;;;;;;;0.40;0.40;;;21.50;99.90;;;;;;5096571;28;20238;-66
2022/08/27 08:44:31;;;;;;;0.40;0.40;;;21.60;99.90;;;;;;5096398;28;20204;-66
2022/08/27 08:47:25;;;;;;;0.40;0.40;;;21.60;99.90;;;;;;5095639;28;20200;-66
2022/08/27 08:50:19;;;;;;;0.40;0.40;;;21.60;99.90;;;;;;5096493;28;20216;-66
2022/08/27 08:53:18;;;;;;;0.68;0.68;;;21.70;99.90;;;;;;5094807;28;20208;-67
2022/08/27 08:56:10;;;;;;;4.22;2.35;;;21.70;99.90;;;;;;5095356;28;20216;-66
2022/08/27 08:59:03;;;;;;;0.40;0.40;;;21.60;99.90;;;;;;5095413;28;20200;-66
2022/08/27 09:01:51;;;;;;;1.40;1.30;;;21.70;99.90;;;;;;5096008;28;20252;-66
2022/08/27 09:04:42;;;;;;;0.98;0.98;;;21.60;99.90;;;;;;5094999;28;20249;-67
2022/08/27 09:07:35;;;;;;;0.40;0.40;;;21.70;99.90;;;;;;5096018;28;20207;-66
2022/08/27 09:10:31;;;;;;;4.50;3.03;;;21.60;99.90;;;;;;5095256;28;20754;-66
2022/08/27 09:13:23;;;;;;;1.25;1.15;;;21.60;99.90;;;;;;5095646;28;20203;-66
2022/08/27 09:16:11;;;;;;;0.63;0.63;;;21.50;99.90;;;;;;5134534;22;20234;-71
2022/08/27 09:19:02;;;;;;;0.40;0.40;;;21.60;99.90;;;;;;5134300;27;20191;-71
2022/08/27 09:22:01;;;;;;;0.40;0.40;;;21.50;99.90;;;;;;5134338;27;20195;-71
2022/08/27 09:25:00;;;;;;;0.40;0.40;;;21.40;99.90;;;;;;5134454;27;20199;-71
2022/08/27 09:27:49;;;;;;;0.43;0.43;;;21.50;99.90;;;;;;5113821;28;20227;-71
2022/08/27 09:30:44;;;;;;;1.38;1.30;;;21.60;99.90;;;;;;5113547;28;20630;-71
2022/08/27 09:33:32;;;;;;;1.80;1.08;;;21.70;99.90;;;;;;5113744;28;20200;-71
2022/08/27 09:36:51;;;;;;;1.25;1.15;;;22.00;99.90;;;;;;5113515;28;20222;-72
2022/08/27 09:39:49;;;;;;;1.80;1.70;;;22.20;99.90;;;;;;5112697;28;20203;-72
2022/08/27 09:42:43;;;;;;;3.25;2.92;;;22.60;99.90;;;;;;5112898;28;20631;-71
2022/08/27 09:45:36;;;;;;;3.92;3.58;;;22.80;99.90;;;;;;5112766;28;20215;-71
2022/08/27 09:48:28;;;;;;;1.67;1.20;;;22.90;99.90;;;;;;5112654;28;20195;-71
2022/08/27 09:51:19;;;;;;;0.73;0.73;;;22.90;99.90;;;;;;5111649;28;20218;-72
2022/08/27 09:54:11;;;;;;;3.92;2.35;;;22.70;99.90;;;;;;5112479;28;20200;-72
2022/08/27 09:57:01;;;;;;;0.70;0.70;;;22.50;99.90;;;;;;5113084;28;20219;-72
2022/08/27 09:59:53;;;;;;;1.13;0.98;;;22.30;99.90;;;;;;5113413;28;20675;-71
2022/08/27 10:02:51;;;;;;;0.40;0.40;;;22.20;99.90;;;;;;5112561;28;20191;-71
2022/08/27 10:05:49;;;;;;;2.53;2.28;;;22.30;99.90;;;;;;5112108;28;20226;-72
2022/08/27 10:08:40;;;;;;;0.40;0.40;;;22.40;99.90;;;;;;5112647;28;20263;-72
2022/08/27 10:11:34;;;;;;;0.40;0.40;;;22.50;99.90;;;;;;5111671;28;20302;-70
2022/08/27 10:14:29;;;;;;;0.40;0.40;;;22.40;99.90;;;;;;5111322;28;20207;-72
2022/08/27 10:17:22;;;;;;;0.40;0.40;;;22.50;99.90;;;;;;5111820;28;20560;-71
2022/08/27 10:20:17;;;;;;;0.40;0.40;;;22.70;99.90;;;;;;5111046;28;20195;-70
2022/08/27 10:23:25;;;;;;;0.40;0.40;;;22.90;99.90;;;;;;5112090;28;20624;-70
2022/08/27 10:26:20;;;;;;;0.40;0.40;;;23.20;99.90;;;;;;5111549;28;20215;-72
2022/08/27 10:29:20;;;;;;;1.90;1.80;;;23.30;99.90;;;;;;5111491;28;20207;-72
2022/08/27 10:32:24;;;;;;;3.33;2.47;;;23.40;99.90;;;;;;5111645;28;20230;-69
2022/08/27 10:35:17;;;;;;;0.40;0.40;;;23.70;99.90;;;;;;5111648;28;20203;-69
2022/08/27 10:38:13;;;;;;;0.40;0.40;;;24.10;99.90;;;;;;5112200;28;20202;-69
2022/08/27 10:41:07;;;;;;;1.75;1.67;;;24.50;99.90;;;;;;5111396;28;20606;-69
2022/08/27 10:44:19;;;;;;;0.50;0.50;;;24.90;99.90;;;;;;5111896;28;20203;-69
2022/08/27 10:47:31;;;;;;;0.40;0.40;;;25.10;99.90;;;;;;5111376;28;20238;-69
2022/08/27 10:50:27;;;;;;;1.35;1.15;;;25.30;99.90;;;;;;5111647;28;20210;-69
2022/08/27 10:53:26;;;;;;;0.40;0.40;;;25.30;99.90;;;;;;5111293;28;20195;-69
2022/08/27 10:56:21;;;;;;;8.32;3.63;;;25.50;99.90;;;;;;5112167;28;20286;-69
2022/08/27 10:59:21;;;;;;;0.50;0.50;;;25.90;99.90;;;;;;5111574;28;20259;-69
2022/08/27 11:02:22;;;;;;;1.90;1.10;;;26.10;99.90;;;;;;5111262;28;20207;-69
2022/08/27 11:05:17;;;;;;;0.40;0.40;;;26.10;99.90;;;;;;5111123;28;20209;-69
2022/08/27 11:08:11;;;;;;;1.88;0.80;;;25.70;99.90;;;;;;5111831;28;20199;-69
2022/08/27 11:11:05;;;;;;;0.73;0.73;;;25.70;99.90;;;;;;5111902;28;20710;-69
2022/08/27 11:14:23;;;;;;;0.40;0.40;;;25.30;99.90;;;;;;5111937;28;20282;-69
2022/08/27 11:17:18;;;;;;;1.23;1.00;;;25.30;99.90;;;;;;5111450;28;20779;-69
2022/08/27 11:20:11;;;;;;;0.40;0.40;;;25.40;99.90;;;;;;5111178;28;20697;-69
2022/08/27 11:23:04;;;;;;;0.50;0.50;;;25.60;99.90;;;;;;5111131;28;20308;-69
2022/08/27 11:25:56;;;;;;;0.40;0.40;;;26.00;99.90;;;;;;5111461;28;20298;-70
2022/08/27 11:28:53;;;;;;;2.53;2.35;;;26.30;99.90;;;;;;5111789;28;20337;-70
2022/08/27 11:31:50;;;;;;;0.45;0.45;;;26.30;99.90;;;;;;5111991;28;20254;-69
2022/08/27 11:34:46;;;;;;;1.30;0.88;;;26.70;99.90;;;;;;5111222;28;20191;-69
2022/08/27 11:37:51;;;;;;;0.55;0.55;;;26.90;99.90;;;;;;5110798;28;20250;-69
2022/08/27 11:40:53;;;;;;;0.40;0.40;;;27.00;99.90;;;;;;5110236;28;20203;-69
2022/08/27 11:43:43;;;;;;;4.35;1.08;;;26.80;99.90;;;;;;5110838;28;20248;-69
2022/08/27 11:46:43;;;;;;;0.40;0.40;;;26.70;99.90;;;;;;5111401;28;20272;-69
2022/08/27 11:49:40;;;;;;;0.40;0.40;;;26.50;99.90;;;;;;5112101;28;20574;-70
2022/08/27 11:52:35;;;;;;;2.05;0.80;;;26.50;99.90;;;;;;5110580;28;20246;-70
2022/08/27 11:55:27;;;;;;;0.40;0.40;;;26.30;99.90;;;;;;5111476;28;20199;-69
2022/08/27 11:58:26;;;;;;;0.47;0.47;;;26.30;99.90;;;;;;5110407;28;20663;-70
2022/08/27 12:01:17;;;;;;;0.40;0.40;;;26.40;99.90;;;;;;5113663;28;20200;-70
2022/08/27 12:04:19;;;;;;;0.60;0.60;;;26.70;99.90;;;;;;5114510;28;20204;-70
2022/08/27 12:07:26;;;;;;;0.70;0.63;;;26.70;99.90;;;;;;5116098;28;20222;-71
2022/08/27 12:10:38;;;;;;;0.50;0.50;;;26.60;99.90;;;;;;5115392;28;20195;-70
2022/08/27 12:13:35;;;;;;;3.25;2.15;;;26.50;99.90;;;;;;5115532;28;20596;-71
2022/08/27 12:16:32;;;;;;;0.70;0.70;;;26.50;99.90;;;;;;5115853;28;20302;-71
2022/08/27 12:19:38;;;;;;;0.40;0.40;;;26.40;99.90;;;;;;5116506;28;20632;-71
2022/08/27 12:26:25;;;;;;;0.40;0.40;;;26.40;99.90;;;;;;5048393;28;20625;-70
2022/08/27 12:29:33;;;;;;;0.60;0.60;;;26.30;99.90;;;;;;5048614;28;20713;-70
2022/08/27 12:32:29;;;;;;;0.70;0.70;;;26.30;99.90;;;;;;5111817;28;20302;-70
2022/08/27 12:35:20;;;;;;;0.88;0.88;;;26.50;99.90;;;;;;5114310;28;20206;-70
2022/08/27 12:38:13;;;;;;;2.85;2.58;;;26.50;99.90;;;;;;5114189;28;20286;-70
2022/08/27 12:41:07;;;;;;;0.40;0.40;;;26.60;99.90;;;;;;5113900;28;20205;-71
2022/08/27 12:44:07;;;;;;;0.50;0.50;;;27.10;99.90;;;;;;5114954;28;20675;-70
2022/08/27 12:47:01;;;;;;;0.50;0.50;;;27.80;99.90;;;;;;5114776;28;20226;-71
2022/08/27 12:49:55;;;;;;;0.63;0.63;;;28.10;99.90;;;;;;5114097;28;20691;-71
2022/08/27 12:53:09;;;;;;;0.40;0.40;;;28.20;99.90;;;;;;5114151;28;20211;-71
2022/08/27 12:56:11;;;;;;;1.75;1.48;;;28.40;99.90;;;;;;5114395;28;20219;-72
2022/08/27 12:59:12;;;;;;;0.40;0.40;;;28.80;99.90;;;;;;5113881;28;20260;-71
2022/08/27 13:02:09;;;;;;;0.70;0.65;;;28.20;99.90;;;;;;5113807;28;20663;-71
2022/08/27 13:05:01;;;;;;;0.40;0.40;;;28.20;99.90;;;;;;5114030;28;20206;-71
2022/08/27 13:07:52;;;;;;;0.40;0.40;;;27.60;99.90;;;;;;5114400;28;20200;-71
2022/08/27 13:10:40;;;;;;;0.50;0.50;;;27.70;99.90;;;;;;5114492;28;20405;-71
2022/08/27 13:13:28;;;;;;;0.30;0.30;;;27.70;99.90;;;;;;5114243;28;20434;-71
2022/08/27 13:16:19;;;;;;;0.40;0.40;;;27.80;99.90;;;;;;5113940;28;20707;-71
2022/08/27 13:19:17;;;;;;;0.40;0.40;;;27.90;99.90;;;;;;5113130;28;20236;-71
2022/08/27 13:22:06;;;;;;;0.40;0.40;;;28.00;99.90;;;;;;5114096;28;20229;-71
2022/08/27 13:24:55;;;;;;;0.40;0.40;;;27.90;99.90;;;;;;5114185;28;20253;-71
2022/08/27 13:27:52;;;;;;;0.30;0.30;;;28.00;99.90;;;;;;5113217;28;20585;-71
2022/08/27 13:30:43;;;;;;;0.40;0.40;;;28.50;99.90;;;;;;5113798;28;20199;-71
2022/08/27 13:33:36;;;;;;;0.40;0.40;;;28.60;99.90;;;;;;5113382;28;20348;-71
2022/08/27 13:36:29;;;;;;;1.00;1.00;;;29.20;99.90;;;;;;5113331;28;20335;-71
2022/08/27 13:39:19;;;;;;;0.40;0.40;;;30.00;99.90;;;;;;5113920;28;20191;-70
2022/08/27 13:42:08;;;;;;;0.40;0.40;;;30.80;99.90;;;;;;5113577;28;20276;-71
2022/08/27 13:45:04;;;;;;;0.40;0.40;;;30.40;99.90;;;;;;5112452;28;20215;-71
2022/08/27 13:47:53;;;;;;;0.70;0.70;;;29.70;99.90;;;;;;5113095;28;20740;-70
2022/08/27 13:50:49;;;;;;;0.40;0.40;;;28.90;99.90;;;;;;5112935;28;20207;-71
2022/08/27 13:57:02;;;;;;;1.60;1.25;;;27.10;99.90;;;;;;5113781;28;20686;-70
2022/08/27 13:59:50;;;;;;;0.50;0.50;;;26.20;99.90;;;;;;5113659;28;20203;-70
2022/08/27 14:02:38;;;;;;;0.40;0.40;;;25.70;99.90;;;;;;5113111;28;20202;-70
2022/08/27 14:05:30;;;;;;;1.95;1.58;;;25.40;99.90;;;;;;5112760;28;20218;-70
2022/08/27 14:08:21;;;;;;;0.40;0.40;;;25.10;99.90;;;;;;5112428;28;20195;-70
2022/08/27 14:11:10;;;;;;;0.60;0.60;;;24.70;99.90;;;;;;5112010;28;20195;-70
2022/08/27 14:13:59;;;;;;;0.50;0.50;;;24.30;99.90;;;;;;5112709;28;20215;-71
2022/08/27 14:16:56;;;;;;;1.05;0.88;;;24.00;99.90;;;;;;5112138;28;20299;-70
2022/08/27 14:19:44;;;;;;;0.40;0.40;;;23.90;99.90;;;;;;5112238;28;20280;-70
2022/08/27 14:22:33;;;;;;;0.85;0.85;;;23.70;99.90;;;;;;5112562;28;20272;-70
2022/08/27 14:25:23;;;;;;;0.40;0.40;;;23.50;99.90;;;;;;5112485;28;20272;-73
2022/08/27 14:28:11;;;;;;;0.40;0.40;;;23.50;99.90;;;;;;5111779;28;20578;-72
2022/08/27 14:30:59;;;;;;;0.40;0.40;;;23.40;99.90;;;;;;5112084;28;20264;-70
2022/08/27 14:33:48;;;;;;;0.40;0.40;;;23.30;99.90;;;;;;5112759;28;20230;-70
2022/08/27 14:36:38;;;;;;;1.30;1.20;;;23.40;99.90;;;;;;5111764;28;20250;-72
2022/08/27 14:39:26;;;;;;;2.35;1.58;;;23.30;99.90;;;;;;5112134;28;20207;-72
2022/08/27 14:42:18;;;;;;;0.40;0.40;;;23.20;99.90;;;;;;5112229;28;20225;-72
2022/08/27 14:45:08;;;;;;;1.05;1.05;;;23.00;99.90;;;;;;5111754;28;20260;-73
2022/08/27 14:47:56;;;;;;;4.82;3.72;;;22.20;99.90;;;;;;5111360;28;20621;-71
2022/08/27 14:51:12;;;;;;;2.08;1.95;;;20.90;99.90;;;;;;5111588;28;20199;-72
2022/08/27 14:54:00;;;;;;;2.03;1.92;;;20.80;99.90;;;;;;5113397;28;20695;-72
2022/08/27 14:56:48;;;;;;;0.40;0.40;;;20.80;99.90;;;;;;5112951;28;20211;-72
2022/08/27 14:59:38;;;;;;;0.40;0.40;;;20.70;99.90;;;;;;5114631;28;20623;-72
2022/08/27 15:02:27;;;;;;;0.40;0.30;;;20.70;99.90;;;;;;5113377;28;20248;-72
2022/08/27 15:05:16;;;;;;;0.40;0.40;;;20.70;99.90;;;;;;5113385;28;20341;-73
2022/08/27 15:08:04;;;;;;;0.30;0.30;;;20.70;99.90;;;;;;5113230;28;20675;-72